sensor_id;sensor_type;location;lat;lon;timestamp;temperature;humidity
41435;DHT22;27177;22.262;114.192;2023-04-15T00:00:49;23.70;99.90
41435;DHT22;27177;22.262;114.192;2023-04-15T00:03:16;23.80;99.90
41435;DHT22;27177;22.262;114.192;2023-04-15T00:05:45;23.80;99.90
41435;DHT22;27177;22.262;114.192;2023-04-15T00:08:11;23.80;99.90
41435;DHT22;27177;22.262;114.192;2023-04-15T00:10:38;23.90;99.90
41435;DHT22;27177;22.262;114.192;2023-04-15T00:13:04;23.90;99.90
41435;DHT22;27177;22.262;114.192;2023-04-15T00:18:07;24.00;99.90
41435;DHT22;27177;22.262;114.192;2023-04-15T00:20:34;24.10;99.90
41435;DHT22;27177;22.262;114.192;2023-04-15T00:23:01;24.10;99.90
41435;DHT22;27177;22.262;114.192;2023-04-15T00:25:28;24.20;99.90
41435;DHT22;27177;22.262;114.192;2023-04-15T00:27:54;24.20;99.90
41435;DHT22;27177;22.262;114.192;2023-04-15T00:30:21;24.30;99.90
41435;DHT22;27177;22.262;114.192;2023-04-15T00:32:48;24.30;99.90
41435;DHT22;27177;22.262;114.192;2023-04-15T00:35:14;24.30;99.90
41435;DHT22;27177;22.262;114.192;2023-04-15T00:37:41;24.40;99.90
41435;DHT22;27177;22.262;114.192;2023-04-15T00:40:08;24.50;99.90
41435;DHT22;27177;22.262;114.192;2023-04-15T00:42:36;24.50;99.90
41435;DHT22;27177;22.262;114.192;2023-04-15T00:45:03;24.50;99.90
41435;DHT22;27177;22.262;114.192;2023-04-15T00:47:30;24.50;99.90
41435;DHT22;27177;22.262;114.192;2023-04-15T00:49:56;24.60;99.90
41435;DHT22;27177;22.262;114.192;2023-04-15T00:52:23;24.70;99.90
41435;DHT22;27177;22.262;114.192;2023-04-15T00:54:49;24.70;99.90
41435;DHT22;27177;22.262;114.192;2023-04-15T00:57:17;24.80;99.90
41435;DHT22;27177;22.262;114.192;2023-04-15T00:59:43;24.80;99.90
41435;DHT22;27177;22.262;114.192;2023-04-15T01:02:11;24.90;99.90
41435;DHT22;27177;22.262;114.192;2023-04-15T01:04:38;25.00;99.90
41435;DHT22;27177;22.262;114.192;2023-04-15T01:07:04;25.10;99.90
41435;DHT22;27177;22.262;114.192;2023-04-15T01:09:30;25.10;99.90
41435;DHT22;27177;22.262;114.192;2023-04-15T01:11:58;25.10;99.90
41435;DHT22;27177;22.262;114.192;2023-04-15T01:14:24;25.20;99.90
41435;DHT22;27177;22.262;114.192;2023-04-15T01:16:51;25.20;99.90
41435;DHT22;27177;22.262;114.192;2023-04-15T01:19:18;25.20;99.90
41435;DHT22;27177;22.262;114.192;2023-04-15T01:21:44;25.30;99.90
41435;DHT22;27177;22.262;114.192;2023-04-15T01:24:11;25.30;99.90
41435;DHT22;27177;22.262;114.192;2023-04-15T01:26:38;25.40;99.90
41435;DHT22;27177;22.262;114.192;2023-04-15T01:29:05;25.40;99.90
41435;DHT22;27177;22.262;114.192;2023-04-15T01:31:31;25.40;99.90
41435;DHT22;27177;22.262;114.192;2023-04-15T01:33:58;25.50;99.90
41435;DHT22;27177;22.262;114.192;2023-04-15T01:36:24;25.50;99.90
41435;DHT22;27177;22.262;114.192;2023-04-15T01:38:50;25.60;99.90
41435;DHT22;27177;22.262;114.192;2023-04-15T01:41:20;25.60;99.90
41435;DHT22;27177;22.262;114.192;2023-04-15T01:43:48;25.70;99.90
41435;DHT22;27177;22.262;114.192;2023-04-15T01:46:14;25.70;99.90
41435;DHT22;27177;22.262;114.192;2023-04-15T01:48:41;25.80;99.90
41435;DHT22;27177;22.262;114.192;2023-04-15T01:51:07;25.80;99.90
41435;DHT22;27177;22.262;114.192;2023-04-15T01:53:33;25.90;99.90
41435;DHT22;27177;22.262;114.192;2023-04-15T01:56:00;26.10;99.90
41435;DHT22;27177;22.262;114.192;2023-04-15T01:58:26;26.10;99.90
41435;DHT22;27177;22.262;114.192;2023-04-15T02:00:53;26.30;99.90
41435;DHT22;27177;22.262;114.192;2023-04-15T02:03:19;26.40;99.90
41435;DHT22;27177;22.262;114.192;2023-04-15T02:05:46;26.40;99.90
41435;DHT22;27177;22.262;114.192;2023-04-15T02:08:14;26.50;99.90
41435;DHT22;27177;22.262;114.192;2023-04-15T02:10:40;26.50;99.90
41435;DHT22;27177;22.262;114.192;2023-04-15T02:13:06;26.60;99.90
41435;DHT22;27177;22.262;114.192;2023-04-15T02:15:35;26.60;99.90
41435;DHT22;27177;22.262;114.192;2023-04-15T02:18:01;26.50;99.90
41435;DHT22;27177;22.262;114.192;2023-04-15T02:20:28;26.60;99.90
41435;DHT22;27177;22.262;114.192;2023-04-15T02:22:57;26.70;99.90
41435;DHT22;27177;22.262;114.192;2023-04-15T02:25:33;26.50;99.90
41435;DHT22;27177;22.262;114.192;2023-04-15T02:28:01;26.60;99.90
41435;DHT22;27177;22.262;114.192;2023-04-15T02:30:28;26.60;99.90
41435;DHT22;27177;22.262;114.192;2023-04-15T02:32:55;26.70;99.90
41435;DHT22;27177;22.262;114.192;2023-04-15T02:35:21;26.70;99.90
41435;DHT22;27177;22.262;114.192;2023-04-15T02:37:50;26.80;99.90
41435;DHT22;27177;22.262;114.192;2023-04-15T02:40:17;26.80;99.90
41435;DHT22;27177;22.262;114.192;2023-04-15T02:42:43;26.80;99.90
41435;DHT22;27177;22.262;114.192;2023-04-15T02:45:09;26.80;99.90
41435;DHT22;27177;22.262;114.192;2023-04-15T02:47:37;26.90;99.90
41435;DHT22;27177;22.262;114.192;2023-04-15T02:50:09;26.90;99.90
41435;DHT22;27177;22.262;114.192;2023-04-15T02:52:40;27.00;99.90
41435;DHT22;27177;22.262;114.192;2023-04-15T02:55:07;26.90;99.90
41435;DHT22;27177;22.262;114.192;2023-04-15T02:57:34;27.00;99.90
41435;DHT22;27177;22.262;114.192;2023-04-15T03:00:05;27.10;99.90
41435;DHT22;27177;22.262;114.192;2023-04-15T03:02:34;27.20;99.90
41435;DHT22;27177;22.262;114.192;2023-04-15T03:05:01;27.20;99.90
41435;DHT22;27177;22.262;114.192;2023-04-15T03:07:27;27.20;99.90
41435;DHT22;27177;22.262;114.192;2023-04-15T03:09:53;27.30;99.90
41435;DHT22;27177;22.262;114.192;2023-04-15T03:12:19;27.40;99.90
41435;DHT22;27177;22.262;114.192;2023-04-15T03:14:46;27.50;99.90
41435;DHT22;27177;22.262;114.192;2023-04-15T03:17:12;27.50;99.90
41435;DHT22;27177;22.262;114.192;2023-04-15T03:19:38;27.50;99.90
41435;DHT22;27177;22.262;114.192;2023-04-15T03:22:05;27.60;99.90
41435;DHT22;27177;22.262;114.192;2023-04-15T03:24:31;27.60;99.90
41435;DHT22;27177;22.262;114.192;2023-04-15T03:26:57;27.70;99.90
41435;DHT22;27177;22.262;114.192;2023-04-15T03:29:23;27.70;99.90
41435;DHT22;27177;22.262;114.192;2023-04-15T03:31:50;27.80;99.90
41435;DHT22;27177;22.262;114.192;2023-04-15T03:34:17;27.80;99.90
41435;DHT22;27177;22.262;114.192;2023-04-15T03:36:44;27.90;99.90
41435;DHT22;27177;22.262;114.192;2023-04-15T03:39:12;27.90;99.90
41435;DHT22;27177;22.262;114.192;2023-04-15T03:41:38;27.90;99.90
41435;DHT22;27177;22.262;114.192;2023-04-15T03:44:04;28.00;99.90
41435;DHT22;27177;22.262;114.192;2023-04-15T03:46:31;28.00;99.90
41435;DHT22;27177;22.262;114.192;2023-04-15T03:48:57;28.10;99.90
41435;DHT22;27177;22.262;114.192;2023-04-15T03:51:23;28.10;99.90
41435;DHT22;27177;22.262;114.192;2023-04-15T03:53:50;28.20;99.90
41435;DHT22;27177;22.262;114.192;2023-04-15T03:56:17;28.30;99.90
41435;DHT22;27177;22.262;114.192;2023-04-15T03:58:43;28.40;99.90
41435;DHT22;27177;22.262;114.192;2023-04-15T04:01:09;28.50;99.90
41435;DHT22;27177;22.262;114.192;2023-04-15T04:03:36;28.50;99.90
41435;DHT22;27177;22.262;114.192;2023-04-15T04:06:02;28.60;99.90
41435;DHT22;27177;22.262;114.192;2023-04-15T04:08:29;28.70;99.90
41435;DHT22;27177;22.262;114.192;2023-04-15T04:10:55;28.80;99.90
41435;DHT22;27177;22.262;114.192;2023-04-15T04:13:21;28.80;99.90
41435;DHT22;27177;22.262;114.192;2023-04-15T04:15:48;28.80;99.90
41435;DHT22;27177;22.262;114.192;2023-04-15T04:18:14;28.90;99.90
41435;DHT22;27177;22.262;114.192;2023-04-15T04:20:40;28.90;99.90
41435;DHT22;27177;22.262;114.192;2023-04-15T04:23:07;29.00;99.90
41435;DHT22;27177;22.262;114.192;2023-04-15T04:25:33;28.90;99.90
41435;DHT22;27177;22.262;114.192;2023-04-15T04:27:59;28.80;99.90
41435;DHT22;27177;22.262;114.192;2023-04-15T04:30:25;28.80;99.90
41435;DHT22;27177;22.262;114.192;2023-04-15T04:32:52;28.80;99.90
41435;DHT22;27177;22.262;114.192;2023-04-15T04:35:18;28.80;99.90
41435;DHT22;27177;22.262;114.192;2023-04-15T04:37:44;29.00;99.90
41435;DHT22;27177;22.262;114.192;2023-04-15T04:40:11;29.00;99.90
41435;DHT22;27177;22.262;114.192;2023-04-15T04:42:37;28.90;99.90
41435;DHT22;27177;22.262;114.192;2023-04-15T04:45:05;29.00;99.90
41435;DHT22;27177;22.262;114.192;2023-04-15T04:47:32;29.20;99.90
41435;DHT22;27177;22.262;114.192;2023-04-15T04:49:58;29.40;99.90
41435;DHT22;27177;22.262;114.192;2023-04-15T04:52:24;29.50;99.90
41435;DHT22;27177;22.262;114.192;2023-04-15T04:54:50;29.60;99.90
41435;DHT22;27177;22.262;114.192;2023-04-15T04:57:17;29.70;99.90
41435;DHT22;27177;22.262;114.192;2023-04-15T04:59:43;29.80;99.90
41435;DHT22;27177;22.262;114.192;2023-04-15T05:02:09;29.80;99.90
41435;DHT22;27177;22.262;114.192;2023-04-15T05:04:35;29.90;99.90
41435;DHT22;27177;22.262;114.192;2023-04-15T05:07:02;30.00;99.90
41435;DHT22;27177;22.262;114.192;2023-04-15T05:09:28;29.90;99.90
41435;DHT22;27177;22.262;114.192;2023-04-15T05:11:57;29.70;99.90
41435;DHT22;27177;22.262;114.192;2023-04-15T05:14:23;29.60;99.90
41435;DHT22;27177;22.262;114.192;2023-04-15T05:16:49;29.60;99.90
41435;DHT22;27177;22.262;114.192;2023-04-15T05:19:15;29.60;99.90
41435;DHT22;27177;22.262;114.192;2023-04-15T05:21:42;29.60;99.90
41435;DHT22;27177;22.262;114.192;2023-04-15T05:24:08;29.60;99.90
41435;DHT22;27177;22.262;114.192;2023-04-15T05:26:34;29.50;99.90
41435;DHT22;27177;22.262;114.192;2023-04-15T05:29:01;29.30;99.90
41435;DHT22;27177;22.262;114.192;2023-04-15T05:31:27;29.10;99.90
41435;DHT22;27177;22.262;114.192;2023-04-15T05:33:54;28.90;99.90
41435;DHT22;27177;22.262;114.192;2023-04-15T05:36:20;28.90;99.90
41435;DHT22;27177;22.262;114.192;2023-04-15T05:38:46;28.90;99.90
41435;DHT22;27177;22.262;114.192;2023-04-15T05:41:13;28.80;99.90
41435;DHT22;27177;22.262;114.192;2023-04-15T05:43:40;28.70;99.90
41435;DHT22;27177;22.262;114.192;2023-04-15T05:46:06;28.60;99.90
41435;DHT22;27177;22.262;114.192;2023-04-15T05:48:33;28.40;99.90
41435;DHT22;27177;22.262;114.192;2023-04-15T05:51:00;28.30;99.90
41435;DHT22;27177;22.262;114.192;2023-04-15T05:53:26;28.20;99.90
41435;DHT22;27177;22.262;114.192;2023-04-15T05:55:52;28.30;99.90
41435;DHT22;27177;22.262;114.192;2023-04-15T05:58:19;28.30;99.90
41435;DHT22;27177;22.262;114.192;2023-04-15T06:00:45;28.50;99.90
41435;DHT22;27177;22.262;114.192;2023-04-15T06:03:12;28.50;99.90
41435;DHT22;27177;22.262;114.192;2023-04-15T06:05:38;28.60;99.90
41435;DHT22;27177;22.262;114.192;2023-04-15T06:08:05;28.60;99.90
41435;DHT22;27177;22.262;114.192;2023-04-15T06:10:31;28.60;99.90
41435;DHT22;27177;22.262;114.192;2023-04-15T06:13:01;28.60;99.90
41435;DHT22;27177;22.262;114.192;2023-04-15T06:15:28;28.60;99.90
41435;DHT22;27177;22.262;114.192;2023-04-15T06:17:55;28.70;99.90
41435;DHT22;27177;22.262;114.192;2023-04-15T06:20:21;28.70;99.90
41435;DHT22;27177;22.262;114.192;2023-04-15T06:22:48;28.80;99.90
41435;DHT22;27177;22.262;114.192;2023-04-15T06:25:14;28.80;99.90
41435;DHT22;27177;22.262;114.192;2023-04-15T06:27:41;28.80;99.90
41435;DHT22;27177;22.262;114.192;2023-04-15T06:30:07;28.80;99.90
41435;DHT22;27177;22.262;114.192;2023-04-15T06:32:34;28.60;99.90
41435;DHT22;27177;22.262;114.192;2023-04-15T06:35:00;28.60;99.90
41435;DHT22;27177;22.262;114.192;2023-04-15T06:37:27;28.60;99.90
41435;DHT22;27177;22.262;114.192;2023-04-15T06:39:53;28.50;99.90
41435;DHT22;27177;22.262;114.192;2023-04-15T06:42:19;28.60;99.90
41435;DHT22;27177;22.262;114.192;2023-04-15T06:44:46;28.60;99.90
41435;DHT22;27177;22.262;114.192;2023-04-15T06:47:12;28.60;99.90
41435;DHT22;27177;22.262;114.192;2023-04-15T06:49:39;28.50;99.90
41435;DHT22;27177;22.262;114.192;2023-04-15T06:52:05;28.30;99.90
41435;DHT22;27177;22.262;114.192;2023-04-15T06:54:32;28.20;99.90
41435;DHT22;27177;22.262;114.192;2023-04-15T06:56:59;28.10;99.90
41435;DHT22;27177;22.262;114.192;2023-04-15T06:59:25;28.10;99.90
41435;DHT22;27177;22.262;114.192;2023-04-15T07:01:52;28.00;99.90
41435;DHT22;27177;22.262;114.192;2023-04-15T07:04:18;28.00;99.90
41435;DHT22;27177;22.262;114.192;2023-04-15T07:06:45;28.10;99.90
41435;DHT22;27177;22.262;114.192;2023-04-15T07:09:11;28.20;99.90
41435;DHT22;27177;22.262;114.192;2023-04-15T07:11:38;28.30;99.90
41435;DHT22;27177;22.262;114.192;2023-04-15T07:14:04;28.30;99.90
41435;DHT22;27177;22.262;114.192;2023-04-15T07:16:31;28.40;99.90
41435;DHT22;27177;22.262;114.192;2023-04-15T07:18:57;28.30;99.90
41435;DHT22;27177;22.262;114.192;2023-04-15T07:21:24;28.30;99.90
41435;DHT22;27177;22.262;114.192;2023-04-15T07:23:50;28.30;99.90
41435;DHT22;27177;22.262;114.192;2023-04-15T07:26:17;28.30;99.90
41435;DHT22;27177;22.262;114.192;2023-04-15T07:28:43;28.30;99.90
41435;DHT22;27177;22.262;114.192;2023-04-15T07:31:11;28.30;99.90
41435;DHT22;27177;22.262;114.192;2023-04-15T07:33:37;28.50;99.90
41435;DHT22;27177;22.262;114.192;2023-04-15T07:36:03;28.50;99.90
41435;DHT22;27177;22.262;114.192;2023-04-15T07:38:29;28.70;99.90
41435;DHT22;27177;22.262;114.192;2023-04-15T07:40:56;28.80;99.90
41435;DHT22;27177;22.262;114.192;2023-04-15T07:43:22;28.70;99.90
41435;DHT22;27177;22.262;114.192;2023-04-15T07:45:49;28.80;99.90
41435;DHT22;27177;22.262;114.192;2023-04-15T07:48:15;28.90;99.90
41435;DHT22;27177;22.262;114.192;2023-04-15T07:50:41;29.10;99.90
41435;DHT22;27177;22.262;114.192;2023-04-15T07:53:07;29.10;99.90
41435;DHT22;27177;22.262;114.192;2023-04-15T07:55:34;29.10;99.90
41435;DHT22;27177;22.262;114.192;2023-04-15T07:58:00;29.00;99.90
41435;DHT22;27177;22.262;114.192;2023-04-15T08:00:26;29.10;99.90
41435;DHT22;27177;22.262;114.192;2023-04-15T08:02:53;29.00;99.90
41435;DHT22;27177;22.262;114.192;2023-04-15T08:05:21;29.10;99.90
41435;DHT22;27177;22.262;114.192;2023-04-15T08:07:48;29.10;99.90
41435;DHT22;27177;22.262;114.192;2023-04-15T08:10:15;29.10;99.90
41435;DHT22;27177;22.262;114.192;2023-04-15T08:12:41;29.10;99.90
41435;DHT22;27177;22.262;114.192;2023-04-15T08:15:07;29.00;99.90
41435;DHT22;27177;22.262;114.192;2023-04-15T08:17:34;29.00;99.90
41435;DHT22;27177;22.262;114.192;2023-04-15T08:20:00;28.90;99.90
41435;DHT22;27177;22.262;114.192;2023-04-15T08:22:26;28.80;99.90
41435;DHT22;27177;22.262;114.192;2023-04-15T08:24:53;28.70;99.90
41435;DHT22;27177;22.262;114.192;2023-04-15T08:27:19;28.60;99.90
41435;DHT22;27177;22.262;114.192;2023-04-15T08:29:46;28.50;99.90
41435;DHT22;27177;22.262;114.192;2023-04-15T08:32:12;28.50;99.90
41435;DHT22;27177;22.262;114.192;2023-04-15T08:34:38;28.50;99.90
41435;DHT22;27177;22.262;114.192;2023-04-15T08:37:05;28.50;99.90
41435;DHT22;27177;22.262;114.192;2023-04-15T08:39:31;28.60;99.90
41435;DHT22;27177;22.262;114.192;2023-04-15T08:41:59;28.60;99.90
41435;DHT22;27177;22.262;114.192;2023-04-15T08:44:32;28.70;99.90
41435;DHT22;27177;22.262;114.192;2023-04-15T08:47:01;28.50;99.90
41435;DHT22;27177;22.262;114.192;2023-04-15T08:49:28;28.40;99.90
41435;DHT22;27177;22.262;114.192;2023-04-15T08:51:56;28.30;99.90
41435;DHT22;27177;22.262;114.192;2023-04-15T08:54:23;28.30;99.90
41435;DHT22;27177;22.262;114.192;2023-04-15T08:56:50;28.20;99.90
41435;DHT22;27177;22.262;114.192;2023-04-15T08:59:17;28.20;99.90
41435;DHT22;27177;22.262;114.192;2023-04-15T09:01:45;28.20;99.90
41435;DHT22;27177;22.262;114.192;2023-04-15T09:04:12;28.10;99.90
41435;DHT22;27177;22.262;114.192;2023-04-15T09:06:39;28.00;99.90
41435;DHT22;27177;22.262;114.192;2023-04-15T09:09:06;27.90;99.90
41435;DHT22;27177;22.262;114.192;2023-04-15T09:11:32;27.80;99.90
41435;DHT22;27177;22.262;114.192;2023-04-15T09:13:59;27.80;99.90
41435;DHT22;27177;22.262;114.192;2023-04-15T09:16:25;27.70;99.90
41435;DHT22;27177;22.262;114.192;2023-04-15T09:18:53;27.60;99.90
41435;DHT22;27177;22.262;114.192;2023-04-15T09:21:19;27.60;99.90
41435;DHT22;27177;22.262;114.192;2023-04-15T09:23:53;27.50;99.90
41435;DHT22;27177;22.262;114.192;2023-04-15T09:26:29;27.40;99.90
41435;DHT22;27177;22.262;114.192;2023-04-15T09:29:01;27.30;99.90
41435;DHT22;27177;22.262;114.192;2023-04-15T09:31:29;27.20;99.90
41435;DHT22;27177;22.262;114.192;2023-04-15T09:33:56;27.10;99.90
41435;DHT22;27177;22.262;114.192;2023-04-15T09:36:22;27.00;99.90
41435;DHT22;27177;22.262;114.192;2023-04-15T09:38:59;26.90;99.90
41435;DHT22;27177;22.262;114.192;2023-04-15T09:41:25;26.80;99.90
41435;DHT22;27177;22.262;114.192;2023-04-15T09:43:53;26.70;99.90
41435;DHT22;27177;22.262;114.192;2023-04-15T09:46:19;26.60;99.90
41435;DHT22;27177;22.262;114.192;2023-04-15T09:48:46;26.60;99.90
41435;DHT22;27177;22.262;114.192;2023-04-15T09:51:12;26.50;99.90
41435;DHT22;27177;22.262;114.192;2023-04-15T09:53:40;26.40;99.90
41435;DHT22;27177;22.262;114.192;2023-04-15T09:56:06;26.40;99.90
41435;DHT22;27177;22.262;114.192;2023-04-15T09:58:33;26.30;99.90
41435;DHT22;27177;22.262;114.192;2023-04-15T10:01:02;26.30;99.90
41435;DHT22;27177;22.262;114.192;2023-04-15T10:03:30;26.20;99.90
41435;DHT22;27177;22.262;114.192;2023-04-15T10:05:57;26.20;99.90
41435;DHT22;27177;22.262;114.192;2023-04-15T10:08:28;26.10;99.90
41435;DHT22;27177;22.262;114.192;2023-04-15T10:10:54;26.10;99.90
41435;DHT22;27177;22.262;114.192;2023-04-15T10:13:24;26.10;99.90
41435;DHT22;27177;22.262;114.192;2023-04-15T10:16:00;26.10;99.90
41435;DHT22;27177;22.262;114.192;2023-04-15T10:18:30;26.00;99.90
41435;DHT22;27177;22.262;114.192;2023-04-15T10:20:57;26.10;99.90
41435;DHT22;27177;22.262;114.192;2023-04-15T10:23:25;26.00;99.90
41435;DHT22;27177;22.262;114.192;2023-04-15T10:25:52;26.00;99.90
41435;DHT22;27177;22.262;114.192;2023-04-15T10:28:19;25.90;99.90
41435;DHT22;27177;22.262;114.192;2023-04-15T10:30:47;25.90;99.90
41435;DHT22;27177;22.262;114.192;2023-04-15T10:33:15;25.90;99.90
41435;DHT22;27177;22.262;114.192;2023-04-15T10:35:42;25.90;99.90
41435;DHT22;27177;22.262;114.192;2023-04-15T10:40:54;25.90;99.90
41435;DHT22;27177;22.262;114.192;2023-04-15T10:43:36;25.90;99.90
41435;DHT22;27177;22.262;114.192;2023-04-15T10:46:04;25.80;99.90
41435;DHT22;27177;22.262;114.192;2023-04-15T10:48:31;25.80;99.90
41435;DHT22;27177;22.262;114.192;2023-04-15T10:50:59;25.80;99.90
41435;DHT22;27177;22.262;114.192;2023-04-15T10:53:30;25.70;99.90
41435;DHT22;27177;22.262;114.192;2023-04-15T10:55:56;25.70;99.90
41435;DHT22;27177;22.262;114.192;2023-04-15T10:58:23;25.80;99.90
41435;DHT22;27177;22.262;114.192;2023-04-15T11:00:51;25.70;99.90
41435;DHT22;27177;22.262;114.192;2023-04-15T11:06:16;26.00;99.90
41435;DHT22;27177;22.262;114.192;2023-04-15T11:08:55;26.00;99.90
41435;DHT22;27177;22.262;114.192;2023-04-15T11:12:08;26.10;99.90
41435;DHT22;27177;22.262;114.192;2023-04-15T11:14:13;26.20;99.90
41435;DHT22;27177;22.262;114.192;2023-04-15T11:16:43;26.20;99.90
41435;DHT22;27177;22.262;114.192;2023-04-15T11:19:09;26.30;99.90
41435;DHT22;27177;22.262;114.192;2023-04-15T11:21:36;26.30;99.90
41435;DHT22;27177;22.262;114.192;2023-04-15T11:24:02;26.40;99.90
41435;DHT22;27177;22.262;114.192;2023-04-15T11:26:28;26.30;99.90
41435;DHT22;27177;22.262;114.192;2023-04-15T11:28:55;26.40;99.90
41435;DHT22;27177;22.262;114.192;2023-04-15T11:31:22;26.50;99.90
41435;DHT22;27177;22.262;114.192;2023-04-15T11:33:54;26.50;99.90
41435;DHT22;27177;22.262;114.192;2023-04-15T11:36:23;26.60;99.90
41435;DHT22;27177;22.262;114.192;2023-04-15T11:38:51;26.50;99.90
41435;DHT22;27177;22.262;114.192;2023-04-15T11:41:21;26.50;99.90
41435;DHT22;27177;22.262;114.192;2023-04-15T11:43:48;26.50;99.90
41435;DHT22;27177;22.262;114.192;2023-04-15T11:46:15;26.50;99.90
41435;DHT22;27177;22.262;114.192;2023-04-15T11:48:42;26.40;99.90
41435;DHT22;27177;22.262;114.192;2023-04-15T11:51:09;26.40;99.90
41435;DHT22;27177;22.262;114.192;2023-04-15T11:56:18;26.20;99.90
41435;DHT22;27177;22.262;114.192;2023-04-15T11:58:46;26.20;99.90
41435;DHT22;27177;22.262;114.192;2023-04-15T12:01:12;26.10;99.90
41435;DHT22;27177;22.262;114.192;2023-04-15T12:03:40;26.10;99.90
41435;DHT22;27177;22.262;114.192;2023-04-15T12:06:08;26.00;99.90
41435;DHT22;27177;22.262;114.192;2023-04-15T12:11:18;26.00;99.90
41435;DHT22;27177;22.262;114.192;2023-04-15T12:13:48;26.10;99.90
41435;DHT22;27177;22.262;114.192;2023-04-15T12:16:18;26.20;99.90
41435;DHT22;27177;22.262;114.192;2023-04-15T12:18:45;26.20;99.90
41435;DHT22;27177;22.262;114.192;2023-04-15T12:21:12;26.20;99.90
41435;DHT22;27177;22.262;114.192;2023-04-15T12:23:51;26.30;99.90
41435;DHT22;27177;22.262;114.192;2023-04-15T12:26:18;26.30;99.90
41435;DHT22;27177;22.262;114.192;2023-04-15T12:28:54;26.30;99.90
41435;DHT22;27177;22.262;114.192;2023-04-15T12:31:21;26.30;99.90
41435;DHT22;27177;22.262;114.192;2023-04-15T12:33:48;26.30;99.90
41435;DHT22;27177;22.262;114.192;2023-04-15T12:36:14;26.30;99.90
41435;DHT22;27177;22.262;114.192;2023-04-15T12:38:41;26.40;99.90
41435;DHT22;27177;22.262;114.192;2023-04-15T12:41:07;26.40;99.90
41435;DHT22;27177;22.262;114.192;2023-04-15T12:43:33;26.40;99.90
41435;DHT22;27177;22.262;114.192;2023-04-15T12:46:00;26.30;99.90
41435;DHT22;27177;22.262;114.192;2023-04-15T12:48:26;26.20;99.90
41435;DHT22;27177;22.262;114.192;2023-04-15T12:50:52;26.20;99.90
41435;DHT22;27177;22.262;114.192;2023-04-15T12:53:19;26.10;99.90
41435;DHT22;27177;22.262;114.192;2023-04-15T12:55:45;26.10;99.90
41435;DHT22;27177;22.262;114.192;2023-04-15T12:58:11;26.00;99.90
41435;DHT22;27177;22.262;114.192;2023-04-15T13:00:38;26.00;99.90
41435;DHT22;27177;22.262;114.192;2023-04-15T13:03:04;25.90;99.90
41435;DHT22;27177;22.262;114.192;2023-04-15T13:05:30;25.90;99.90
41435;DHT22;27177;22.262;114.192;2023-04-15T13:07:57;25.80;99.90
41435;DHT22;27177;22.262;114.192;2023-04-15T13:10:23;25.80;99.90
41435;DHT22;27177;22.262;114.192;2023-04-15T13:12:49;25.80;99.90
41435;DHT22;27177;22.262;114.192;2023-04-15T13:15:18;25.80;99.90
41435;DHT22;27177;22.262;114.192;2023-04-15T13:17:47;25.70;99.90
41435;DHT22;27177;22.262;114.192;2023-04-15T13:20:13;25.70;99.90
41435;DHT22;27177;22.262;114.192;2023-04-15T13:22:40;25.60;99.90
41435;DHT22;27177;22.262;114.192;2023-04-15T13:25:06;25.50;99.90
41435;DHT22;27177;22.262;114.192;2023-04-15T13:27:33;25.40;99.90
41435;DHT22;27177;22.262;114.192;2023-04-15T13:29:59;25.40;99.90
41435;DHT22;27177;22.262;114.192;2023-04-15T13:32:25;25.30;99.90
41435;DHT22;27177;22.262;114.192;2023-04-15T13:34:52;25.30;99.90
41435;DHT22;27177;22.262;114.192;2023-04-15T13:37:19;25.20;99.90
41435;DHT22;27177;22.262;114.192;2023-04-15T13:39:45;25.10;99.90
41435;DHT22;27177;22.262;114.192;2023-04-15T13:42:11;25.10;99.90
41435;DHT22;27177;22.262;114.192;2023-04-15T13:44:38;25.10;99.90
41435;DHT22;27177;22.262;114.192;2023-04-15T13:47:04;25.10;99.90
41435;DHT22;27177;22.262;114.192;2023-04-15T13:49:31;25.00;99.90
41435;DHT22;27177;22.262;114.192;2023-04-15T13:51:57;24.90;99.90
41435;DHT22;27177;22.262;114.192;2023-04-15T13:54:23;24.90;99.90
41435;DHT22;27177;22.262;114.192;2023-04-15T13:56:50;24.80;99.90
41435;DHT22;27177;22.262;114.192;2023-04-15T13:59:16;24.80;99.90
41435;DHT22;27177;22.262;114.192;2023-04-15T14:01:42;24.80;99.90
41435;DHT22;27177;22.262;114.192;2023-04-15T14:04:09;24.70;99.90
41435;DHT22;27177;22.262;114.192;2023-04-15T14:09:11;24.60;99.90
41435;DHT22;27177;22.262;114.192;2023-04-15T14:11:37;24.60;99.90
41435;DHT22;27177;22.262;114.192;2023-04-15T14:14:04;24.60;99.90
41435;DHT22;27177;22.262;114.192;2023-04-15T14:16:40;24.60;99.90
41435;DHT22;27177;22.262;114.192;2023-04-15T14:19:06;24.60;99.90
41435;DHT22;27177;22.262;114.192;2023-04-15T14:24:09;24.60;99.90
41435;DHT22;27177;22.262;114.192;2023-04-15T14:26:36;24.60;99.90
41435;DHT22;27177;22.262;114.192;2023-04-15T14:31:38;24.60;99.90
41435;DHT22;27177;22.262;114.192;2023-04-15T14:34:04;24.50;99.90
41435;DHT22;27177;22.262;114.192;2023-04-15T14:39:05;24.50;99.90
41435;DHT22;27177;22.262;114.192;2023-04-15T14:41:31;24.50;99.90
41435;DHT22;27177;22.262;114.192;2023-04-15T14:43:58;24.40;99.90
41435;DHT22;27177;22.262;114.192;2023-04-15T14:46:24;24.40;99.90
41435;DHT22;27177;22.262;114.192;2023-04-15T14:48:51;24.40;99.90
41435;DHT22;27177;22.262;114.192;2023-04-15T14:51:17;24.30;99.90
41435;DHT22;27177;22.262;114.192;2023-04-15T14:53:44;24.30;99.90
41435;DHT22;27177;22.262;114.192;2023-04-15T14:56:10;24.30;99.90
41435;DHT22;27177;22.262;114.192;2023-04-15T14:58:36;24.20;99.90
41435;DHT22;27177;22.262;114.192;2023-04-15T15:01:03;24.20;99.90
41435;DHT22;27177;22.262;114.192;2023-04-15T15:03:29;24.10;99.90
41435;DHT22;27177;22.262;114.192;2023-04-15T15:05:56;24.10;99.90
41435;DHT22;27177;22.262;114.192;2023-04-15T15:08:25;24.10;99.90
41435;DHT22;27177;22.262;114.192;2023-04-15T15:10:51;24.10;99.90
41435;DHT22;27177;22.262;114.192;2023-04-15T15:13:18;24.00;99.90
41435;DHT22;27177;22.262;114.192;2023-04-15T15:15:44;24.00;99.90
41435;DHT22;27177;22.262;114.192;2023-04-15T15:18:11;23.90;99.90
41435;DHT22;27177;22.262;114.192;2023-04-15T15:20:37;23.90;99.90
41435;DHT22;27177;22.262;114.192;2023-04-15T15:23:03;23.90;99.90
41435;DHT22;27177;22.262;114.192;2023-04-15T15:25:29;23.80;99.90